sensor_id;sensor_type;location;lat;lon;timestamp;pressure;altitude;pressure_sealevel;temperature;humidity
6528;BME280;64597;42.664;23.256;2023-05-25T00:01:06;94540.75;;;16.00;65.04
6528;BME280;64597;42.664;23.256;2023-05-25T00:03:31;94528.25;;;15.86;64.57
6528;BME280;64597;42.664;23.256;2023-05-25T00:05:58;94542.59;;;15.95;64.59
6528;BME280;64597;42.664;23.256;2023-05-25T00:08:25;94545.78;;;15.97;64.65
6528;BME280;64597;42.664;23.256;2023-05-25T00:10:51;94542.88;;;15.88;64.64
6528;BME280;64597;42.664;23.256;2023-05-25T00:13:16;94539.94;;;15.85;64.91
6528;BME280;64597;42.664;23.256;2023-05-25T00:15:42;94539.16;;;15.79;64.93
6528;BME280;64597;42.664;23.256;2023-05-25T00:18:07;94545.81;;;15.82;64.95
6528;BME280;64597;42.664;23.256;2023-05-25T00:20:33;94547.91;;;15.85;64.90
6528;BME280;64597;42.664;23.256;2023-05-25T00:22:58;94542.06;;;15.83;64.91
6528;BME280;64597;42.664;23.256;2023-05-25T00:25:26;94546.34;;;15.84;64.91
6528;BME280;64597;42.664;23.256;2023-05-25T00:27:52;94544.75;;;15.78;64.62
6528;BME280;64597;42.664;23.256;2023-05-25T00:30:17;94524.00;;;15.54;64.96
6528;BME280;64597;42.664;23.256;2023-05-25T00:32:43;94551.63;;;15.68;65.55
6528;BME280;64597;42.664;23.256;2023-05-25T00:35:08;94551.09;;;15.66;65.25
6528;BME280;64597;42.664;23.256;2023-05-25T00:37:33;94555.63;;;15.66;65.66
6528;BME280;64597;42.664;23.256;2023-05-25T00:39:59;94548.19;;;15.58;65.53
6528;BME280;64597;42.664;23.256;2023-05-25T00:42:24;94545.53;;;15.53;65.76
6528;BME280;64597;42.664;23.256;2023-05-25T00:44:53;94565.72;;;15.59;65.80
6528;BME280;64597;42.664;23.256;2023-05-25T00:47:18;94559.34;;;15.55;65.46
6528;BME280;64597;42.664;23.256;2023-05-25T00:49:44;94562.00;;;15.50;65.98
6528;BME280;64597;42.664;23.256;2023-05-25T00:52:11;94566.78;;;15.43;66.00
6528;BME280;64597;42.664;23.256;2023-05-25T00:54:37;94565.91;;;15.22;67.15
6528;BME280;64597;42.664;23.256;2023-05-25T00:57:05;94566.97;;;15.16;66.82
6528;BME280;64597;42.664;23.256;2023-05-25T00:59:38;94561.66;;;15.21;66.73
6528;BME280;64597;42.664;23.256;2023-05-25T01:02:12;94565.91;;;15.22;66.70
6528;BME280;64597;42.664;23.256;2023-05-25T01:05:01;94564.81;;;15.08;67.12
6528;BME280;64597;42.664;23.256;2023-05-25T01:07:31;94570.63;;;15.05;67.06
6528;BME280;64597;42.664;23.256;2023-05-25T01:10:00;94572.75;;;15.03;67.05
6528;BME280;64597;42.664;23.256;2023-05-25T01:12:27;94570.88;;;14.99;66.63
6528;BME280;64597;42.664;23.256;2023-05-25T01:14:55;94579.91;;;14.98;67.15
6528;BME280;64597;42.664;23.256;2023-05-25T01:17:21;94572.72;;;14.93;66.80
6528;BME280;64597;42.664;23.256;2023-05-25T01:19:47;94567.66;;;14.86;67.21
6528;BME280;64597;42.664;23.256;2023-05-25T01:22:29;94571.16;;;14.92;66.99
6528;BME280;64597;42.664;23.256;2023-05-25T01:25:03;94565.81;;;14.82;66.96
6528;BME280;64597;42.664;23.256;2023-05-25T01:27:35;94564.75;;;14.93;67.03
6528;BME280;64597;42.664;23.256;2023-05-25T01:30:08;94557.34;;;14.90;66.98
6528;BME280;64597;42.664;23.256;2023-05-25T01:32:36;94554.16;;;14.88;67.21
6528;BME280;64597;42.664;23.256;2023-05-25T01:35:02;94540.03;;;14.77;67.29
6528;BME280;64597;42.664;23.256;2023-05-25T01:37:28;94541.88;;;14.77;67.10
6528;BME280;64597;42.664;23.256;2023-05-25T01:39:55;94549.38;;;14.90;67.48
6528;BME280;64597;42.664;23.256;2023-05-25T01:42:21;94547.25;;;14.92;67.33
6528;BME280;64597;42.664;23.256;2023-05-25T01:44:46;94539.78;;;14.89;67.15
6528;BME280;64597;42.664;23.256;2023-05-25T01:47:45;94543.75;;;14.86;66.97
6528;BME280;64597;42.664;23.256;2023-05-25T01:52:52;94529.69;;;14.81;66.87
6528;BME280;64597;42.664;23.256;2023-05-25T01:55:21;94531.28;;;14.82;67.01
6528;BME280;64597;42.664;23.256;2023-05-25T01:57:51;94530.19;;;14.78;66.66
6528;BME280;64597;42.664;23.256;2023-05-25T02:00:18;94527.00;;;14.71;67.14
6528;BME280;64597;42.664;23.256;2023-05-25T02:02:45;94528.03;;;14.70;67.49
6528;BME280;64597;42.664;23.256;2023-05-25T02:05:12;94528.03;;;14.65;67.07
6528;BME280;64597;42.664;23.256;2023-05-25T02:07:37;94541.31;;;14.70;67.31
6528;BME280;64597;42.664;23.256;2023-05-25T02:10:03;94543.47;;;14.73;67.27
6528;BME280;64597;42.664;23.256;2023-05-25T02:12:28;94541.31;;;14.70;66.65
6528;BME280;64597;42.664;23.256;2023-05-25T02:14:54;94546.59;;;14.60;67.12
6528;BME280;64597;42.664;23.256;2023-05-25T02:17:20;94514.13;;;14.33;66.78
6528;BME280;64597;42.664;23.256;2023-05-25T02:19:45;94560.88;;;14.54;67.27
6528;BME280;64597;42.664;23.256;2023-05-25T02:22:13;94555.88;;;14.57;66.79
6528;BME280;64597;42.664;23.256;2023-05-25T02:24:38;94569.16;;;14.57;67.04
6528;BME280;64597;42.664;23.256;2023-05-25T02:27:05;94568.06;;;14.53;67.51
6528;BME280;64597;42.664;23.256;2023-05-25T02:29:31;94572.53;;;14.48;67.43
6528;BME280;64597;42.664;23.256;2023-05-25T02:31:57;94578.63;;;14.48;67.44
6528;BME280;64597;42.664;23.256;2023-05-25T02:34:23;94551.25;;;14.38;67.79
6528;BME280;64597;42.664;23.256;2023-05-25T02:36:48;94574.69;;;14.51;67.77
6528;BME280;64597;42.664;23.256;2023-05-25T02:39:15;94579.19;;;14.50;67.73
6528;BME280;64597;42.664;23.256;2023-05-25T02:41:40;94570.09;;;14.41;67.74
6528;BME280;64597;42.664;23.256;2023-05-25T02:44:06;94586.09;;;14.51;68.03
6528;BME280;64597;42.664;23.256;2023-05-25T02:46:31;94581.56;;;14.52;68.10
6528;BME280;64597;42.664;23.256;2023-05-25T02:48:57;94590.06;;;14.54;67.86
6528;BME280;64597;42.664;23.256;2023-05-25T02:51:23;94587.19;;;14.55;68.23
6528;BME280;64597;42.664;23.256;2023-05-25T02:53:49;94595.09;;;14.50;68.06
6528;BME280;64597;42.664;23.256;2023-05-25T02:56:14;94590.28;;;14.47;68.39
6528;BME280;64597;42.664;23.256;2023-05-25T02:58:40;94599.03;;;14.43;68.27
6528;BME280;64597;42.664;23.256;2023-05-25T03:01:06;94596.91;;;14.40;68.46
6528;BME280;64597;42.664;23.256;2023-05-25T03:03:37;94584.06;;;14.27;68.32
6528;BME280;64597;42.664;23.256;2023-05-25T03:06:03;94598.19;;;14.32;68.64
6528;BME280;64597;42.664;23.256;2023-05-25T03:08:29;94603.22;;;14.34;68.94
6528;BME280;64597;42.664;23.256;2023-05-25T03:10:54;94595.19;;;14.24;69.14
6528;BME280;64597;42.664;23.256;2023-05-25T03:13:20;94605.28;;;14.27;68.92
6528;BME280;64597;42.664;23.256;2023-05-25T03:15:45;94604.78;;;14.30;69.13
6528;BME280;64597;42.664;23.256;2023-05-25T03:18:10;94587.47;;;14.22;69.38
6528;BME280;64597;42.664;23.256;2023-05-25T03:20:36;94595.97;;;14.24;68.88
6528;BME280;64597;42.664;23.256;2023-05-25T03:23:01;94605.78;;;14.24;68.77
6528;BME280;64597;42.664;23.256;2023-05-25T03:25:27;94605.28;;;14.27;68.88
6528;BME280;64597;42.664;23.256;2023-05-25T03:27:52;94594.09;;;14.20;69.00
6528;BME280;64597;42.664;23.256;2023-05-25T03:30:20;94596.19;;;14.18;69.02
6528;BME280;64597;42.664;23.256;2023-05-25T03:32:45;94606.06;;;14.27;69.19
6528;BME280;64597;42.664;23.256;2023-05-25T03:35:11;94609.59;;;14.33;69.04
6528;BME280;64597;42.664;23.256;2023-05-25T03:37:36;94619.41;;;14.37;68.71
6528;BME280;64597;42.664;23.256;2023-05-25T03:40:01;94611.72;;;14.36;68.91
6528;BME280;64597;42.664;23.256;2023-05-25T03:42:27;94607.31;;;14.15;69.25
6528;BME280;64597;42.664;23.256;2023-05-25T03:44:52;94614.09;;;14.32;69.60
6528;BME280;64597;42.664;23.256;2023-05-25T03:47:18;94608.25;;;14.35;69.36
6528;BME280;64597;42.664;23.256;2023-05-25T03:49:43;94611.75;;;14.41;69.38
6528;BME280;64597;42.664;23.256;2023-05-25T03:52:09;94598.47;;;14.36;69.48
6528;BME280;64597;42.664;23.256;2023-05-25T03:54:35;94615.25;;;14.46;69.42
6528;BME280;64597;42.664;23.256;2023-05-25T03:57:00;94618.97;;;14.50;69.19
6528;BME280;64597;42.664;23.256;2023-05-25T03:59:28;94610.75;;;14.52;69.25
6528;BME280;64597;42.664;23.256;2023-05-25T04:01:53;94623.53;;;14.55;68.94
6528;BME280;64597;42.664;23.256;2023-05-25T04:04:19;94628.34;;;14.68;68.76
6528;BME280;64597;42.664;23.256;2023-05-25T04:06:45;94627.59;;;14.72;68.38
6528;BME280;64597;42.664;23.256;2023-05-25T04:09:13;94627.31;;;14.74;68.57
6528;BME280;64597;42.664;23.256;2023-05-25T04:11:38;94630.81;;;14.79;68.38
6528;BME280;64597;42.664;23.256;2023-05-25T04:14:04;94625.50;;;14.79;68.57
6528;BME280;64597;42.664;23.256;2023-05-25T04:16:30;94635.91;;;14.86;68.28
6528;BME280;64597;42.664;23.256;2023-05-25T04:18:55;94638.56;;;14.91;68.49
6528;BME280;64597;42.664;23.256;2023-05-25T04:21:21;94621.00;;;14.85;68.36
6528;BME280;64597;42.664;23.256;2023-05-25T04:23:47;94632.25;;;15.07;68.32
6528;BME280;64597;42.664;23.256;2023-05-25T04:26:13;94633.06;;;15.13;68.55
6528;BME280;64597;42.664;23.256;2023-05-25T04:28:39;94637.09;;;15.20;67.91
6528;BME280;64597;42.664;23.256;2023-05-25T04:31:05;94642.69;;;15.34;67.99
6528;BME280;64597;42.664;23.256;2023-05-25T04:33:32;94637.38;;;15.34;67.83
6528;BME280;64597;42.664;23.256;2023-05-25T04:36:01;94632.06;;;15.34;67.81
6528;BME280;64597;42.664;23.256;2023-05-25T04:38:28;94655.28;;;15.58;68.09
6528;BME280;64597;42.664;23.256;2023-05-25T04:40:54;94655.84;;;15.65;67.30
6528;BME280;64597;42.664;23.256;2023-05-25T04:43:22;94658.53;;;15.76;67.54
6528;BME280;64597;42.664;23.256;2023-05-25T04:45:51;94661.72;;;15.83;67.31
6528;BME280;64597;42.664;23.256;2023-05-25T04:48:16;94654.28;;;15.90;67.32
6528;BME280;64597;42.664;23.256;2023-05-25T04:50:42;94655.63;;;16.47;78.51
6528;BME280;64597;42.664;23.256;2023-05-25T04:53:08;94659.69;;;17.83;77.97
6528;BME280;64597;42.664;23.256;2023-05-25T04:55:33;94650.13;;;18.78;70.00
6528;BME280;64597;42.664;23.256;2023-05-25T04:58:00;94644.91;;;19.39;66.69
6528;BME280;64597;42.664;23.256;2023-05-25T05:00:25;94634.19;;;19.81;60.96
6528;BME280;64597;42.664;23.256;2023-05-25T05:02:53;94633.13;;;20.19;60.50
6528;BME280;64597;42.664;23.256;2023-05-25T05:05:21;94637.78;;;20.60;57.48
6528;BME280;64597;42.664;23.256;2023-05-25T05:07:46;94633.56;;;20.86;56.18
6528;BME280;64597;42.664;23.256;2023-05-25T05:10:12;94631.03;;;21.08;56.04
6528;BME280;64597;42.664;23.256;2023-05-25T05:12:37;94624.38;;;21.32;54.74
6528;BME280;64597;42.664;23.256;2023-05-25T05:15:03;94601.34;;;21.31;52.12
6528;BME280;64597;42.664;23.256;2023-05-25T05:17:29;94622.34;;;21.65;58.49
6528;BME280;64597;42.664;23.256;2023-05-25T05:19:55;94627.69;;;21.92;63.16
6528;BME280;64597;42.664;23.256;2023-05-25T05:22:20;94610.53;;;22.02;61.18
6528;BME280;64597;42.664;23.256;2023-05-25T05:24:46;94625.31;;;22.13;57.10
6528;BME280;64597;42.664;23.256;2023-05-25T05:27:12;94624.94;;;21.70;52.07
6528;BME280;64597;42.664;23.256;2023-05-25T05:29:41;94631.53;;;21.37;51.34
6528;BME280;64597;42.664;23.256;2023-05-25T05:32:06;94626.47;;;21.08;51.53
6528;BME280;64597;42.664;23.256;2023-05-25T05:34:32;94635.66;;;20.89;52.02
6528;BME280;64597;42.664;23.256;2023-05-25T05:36:58;94647.28;;;20.84;52.77
6528;BME280;64597;42.664;23.256;2023-05-25T05:39:26;94643.41;;;20.77;52.82
6528;BME280;64597;42.664;23.256;2023-05-25T05:41:53;94646.84;;;20.77;53.17
6528;BME280;64597;42.664;23.256;2023-05-25T05:44:23;94645.66;;;20.70;53.74
6528;BME280;64597;42.664;23.256;2023-05-25T05:46:48;94639.59;;;20.78;54.05
6528;BME280;64597;42.664;23.256;2023-05-25T05:49:14;94651.16;;;20.92;54.08
6528;BME280;64597;42.664;23.256;2023-05-25T05:51:39;94647.59;;;20.96;54.35
6528;BME280;64597;42.664;23.256;2023-05-25T05:54:05;94647.13;;;21.08;53.46
6528;BME280;64597;42.664;23.256;2023-05-25T05:56:30;94647.91;;;21.22;53.25
6528;BME280;64597;42.664;23.256;2023-05-25T05:58:56;94651.41;;;21.22;53.45
6528;BME280;64597;42.664;23.256;2023-05-25T06:01:22;94655.28;;;21.30;53.37
6528;BME280;64597;42.664;23.256;2023-05-25T06:03:48;94648.09;;;21.53;51.88
6528;BME280;64597;42.664;23.256;2023-05-25T06:06:17;94650.56;;;21.76;51.32
6528;BME280;64597;42.664;23.256;2023-05-25T06:08:42;94652.09;;;22.04;50.40
6528;BME280;64597;42.664;23.256;2023-05-25T06:11:08;94655.53;;;22.19;50.22
6528;BME280;64597;42.664;23.256;2023-05-25T06:13:33;94625.56;;;22.25;48.93
6528;BME280;64597;42.664;23.256;2023-05-25T06:15:59;94639.06;;;22.78;48.15
6528;BME280;64597;42.664;23.256;2023-05-25T06:18:24;94644.34;;;23.22;45.87
6528;BME280;64597;42.664;23.256;2023-05-25T06:20:50;94642.97;;;23.33;46.46
6528;BME280;64597;42.664;23.256;2023-05-25T06:23:15;94654.47;;;23.25;47.24
6528;BME280;64597;42.664;23.256;2023-05-25T06:25:42;94650.72;;;23.04;47.60
6528;BME280;64597;42.664;23.256;2023-05-25T06:28:08;94656.19;;;23.21;48.43
6528;BME280;64597;42.664;23.256;2023-05-25T06:30:33;94651.78;;;23.64;46.77
6528;BME280;64597;42.664;23.256;2023-05-25T06:32:59;94650.75;;;24.08;45.20
6528;BME280;64597;42.664;23.256;2023-05-25T06:35:24;94657.72;;;24.43;43.93
6528;BME280;64597;42.664;23.256;2023-05-25T06:37:49;94648.97;;;24.64;44.64
6528;BME280;64597;42.664;23.256;2023-05-25T06:40:15;94640.06;;;24.97;44.25
6528;BME280;64597;42.664;23.256;2023-05-25T06:42:41;94656.59;;;25.33;43.18
6528;BME280;64597;42.664;23.256;2023-05-25T06:45:07;94650.97;;;25.56;43.34
6528;BME280;64597;42.664;23.256;2023-05-25T06:47:34;94656.09;;;25.78;42.75
6528;BME280;64597;42.664;23.256;2023-05-25T06:49:59;94659.59;;;25.99;42.69
6528;BME280;64597;42.664;23.256;2023-05-25T06:52:25;94655.44;;;26.31;42.03
6528;BME280;64597;42.664;23.256;2023-05-25T06:54:54;94640.53;;;26.45;42.47
6528;BME280;64597;42.664;23.256;2023-05-25T06:57:20;94653.13;;;26.94;40.93
6528;BME280;64597;42.664;23.256;2023-05-25T06:59:45;94643.44;;;27.06;40.38
6528;BME280;64597;42.664;23.256;2023-05-25T07:02:11;94657.41;;;27.40;40.16
6528;BME280;64597;42.664;23.256;2023-05-25T07:04:36;94646.69;;;27.44;40.76
6528;BME280;64597;42.664;23.256;2023-05-25T07:07:02;94663.84;;;27.36;40.32
6528;BME280;64597;42.664;23.256;2023-05-25T07:09:27;94655.50;;;27.53;39.35
6528;BME280;64597;42.664;23.256;2023-05-25T07:11:53;94652.34;;;27.63;39.40
6528;BME280;64597;42.664;23.256;2023-05-25T07:14:18;94651.53;;;27.99;38.82
6528;BME280;64597;42.664;23.256;2023-05-25T07:16:44;94660.47;;;28.51;37.58
6528;BME280;64597;42.664;23.256;2023-05-25T07:19:10;94661.13;;;28.72;37.56
6528;BME280;64597;42.664;23.256;2023-05-25T07:21:35;94648.78;;;29.18;36.52
6528;BME280;64597;42.664;23.256;2023-05-25T07:24:02;94654.34;;;29.37;36.30
6528;BME280;64597;42.664;23.256;2023-05-25T07:26:32;94660.19;;;29.55;35.55
6528;BME280;64597;42.664;23.256;2023-05-25T07:28:58;94666.53;;;29.43;35.05
6528;BME280;64597;42.664;23.256;2023-05-25T07:31:24;94667.63;;;29.26;35.67
6528;BME280;64597;42.664;23.256;2023-05-25T07:33:49;94663.69;;;29.24;35.36
6528;BME280;64597;42.664;23.256;2023-05-25T07:36:15;94674.59;;;29.12;35.23
6528;BME280;64597;42.664;23.256;2023-05-25T07:38:41;94667.53;;;28.80;35.71
6528;BME280;64597;42.664;23.256;2023-05-25T07:41:06;94667.94;;;28.66;36.39
6528;BME280;64597;42.664;23.256;2023-05-25T07:43:32;94674.25;;;28.70;36.47
6528;BME280;64597;42.664;23.256;2023-05-25T07:45:57;94669.59;;;28.71;35.53
6528;BME280;64597;42.664;23.256;2023-05-25T07:48:25;94667.91;;;28.14;36.41
6528;BME280;64597;42.664;23.256;2023-05-25T07:50:50;94670.75;;;27.82;36.53
6528;BME280;64597;42.664;23.256;2023-05-25T07:53:16;94671.75;;;27.77;37.17
6528;BME280;64597;42.664;23.256;2023-05-25T07:55:41;94672.09;;;27.76;37.34
6528;BME280;64597;42.664;23.256;2023-05-25T07:58:07;94662.63;;;27.69;35.98
6528;BME280;64597;42.664;23.256;2023-05-25T08:00:32;94666.78;;;27.55;36.74
6528;BME280;64597;42.664;23.256;2023-05-25T08:02:58;94667.69;;;27.35;36.76
6528;BME280;64597;42.664;23.256;2023-05-25T08:05:23;94665.47;;;27.16;37.49
6528;BME280;64597;42.664;23.256;2023-05-25T08:07:49;94666.72;;;27.07;37.73
6528;BME280;64597;42.664;23.256;2023-05-25T08:10:14;94668.66;;;26.85;37.62
6528;BME280;64597;42.664;23.256;2023-05-25T08:12:40;94656.03;;;26.36;38.24
6528;BME280;64597;42.664;23.256;2023-05-25T08:15:06;94671.72;;;26.22;38.78
6528;BME280;64597;42.664;23.256;2023-05-25T08:17:31;94680.13;;;26.00;39.53
6528;BME280;64597;42.664;23.256;2023-05-25T08:19:57;94684.22;;;25.77;39.90
6528;BME280;64597;42.664;23.256;2023-05-25T08:22:23;94708.66;;;25.51;39.30
6528;BME280;64597;42.664;23.256;2023-05-25T08:24:48;94693.84;;;25.02;40.72
6528;BME280;64597;42.664;23.256;2023-05-25T08:27:13;94716.25;;;24.60;40.84
6528;BME280;64597;42.664;23.256;2023-05-25T08:29:39;94711.47;;;24.23;41.84
6528;BME280;64597;42.664;23.256;2023-05-25T08:32:05;94735.25;;;24.21;42.49
6528;BME280;64597;42.664;23.256;2023-05-25T08:34:30;94745.50;;;24.02;41.50
6528;BME280;64597;42.664;23.256;2023-05-25T08:36:56;94737.94;;;23.64;41.18
6528;BME280;64597;42.664;23.256;2023-05-25T08:39:22;94744.19;;;23.51;42.22
6528;BME280;64597;42.664;23.256;2023-05-25T08:41:48;94757.97;;;23.50;55.66
6528;BME280;64597;42.664;23.256;2023-05-25T08:44:14;94755.41;;;23.84;53.73
6528;BME280;64597;42.664;23.256;2023-05-25T08:46:40;94745.31;;;23.90;49.88
6528;BME280;64597;42.664;23.256;2023-05-25T08:49:11;94752.56;;;23.81;45.45
6528;BME280;64597;42.664;23.256;2023-05-25T08:51:44;94746.34;;;23.63;44.68
6528;BME280;64597;42.664;23.256;2023-05-25T08:54:12;94736.75;;;23.18;45.95
6528;BME280;64597;42.664;23.256;2023-05-25T08:56:48;94752.03;;;23.09;46.75
6528;BME280;64597;42.664;23.256;2023-05-25T09:01:57;94762.47;;;22.66;46.05
6528;BME280;64597;42.664;23.256;2023-05-25T09:04:23;94762.28;;;22.49;46.17
6528;BME280;64597;42.664;23.256;2023-05-25T09:06:49;94763.63;;;22.38;46.76
6528;BME280;64597;42.664;23.256;2023-05-25T09:09:15;94776.00;;;22.25;48.45
6528;BME280;64597;42.664;23.256;2023-05-25T09:11:42;94770.84;;;22.15;48.67
6528;BME280;64597;42.664;23.256;2023-05-25T09:14:10;94774.75;;;22.09;48.56
6528;BME280;64597;42.664;23.256;2023-05-25T09:16:38;94773.66;;;21.96;49.16
6528;BME280;64597;42.664;23.256;2023-05-25T09:19:04;94751.41;;;21.82;49.93
6528;BME280;64597;42.664;23.256;2023-05-25T09:21:29;94764.19;;;21.85;50.14
6528;BME280;64597;42.664;23.256;2023-05-25T09:23:55;94769.06;;;21.83;51.11
6528;BME280;64597;42.664;23.256;2023-05-25T09:26:22;94773.81;;;21.59;50.72
6528;BME280;64597;42.664;23.256;2023-05-25T09:28:47;94761.09;;;21.38;51.78
6528;BME280;64597;42.664;23.256;2023-05-25T09:31:14;94776.81;;;21.44;52.70
6528;BME280;64597;42.664;23.256;2023-05-25T09:33:40;94770.22;;;21.37;52.98
6528;BME280;64597;42.664;23.256;2023-05-25T09:36:06;94761.06;;;21.24;53.21
6528;BME280;64597;42.664;23.256;2023-05-25T09:38:32;94761.16;;;21.19;53.74
6528;BME280;64597;42.664;23.256;2023-05-25T09:40:58;94754.47;;;21.03;54.84
6528;BME280;64597;42.664;23.256;2023-05-25T09:43:23;94751.06;;;20.97;54.55
6528;BME280;64597;42.664;23.256;2023-05-25T09:45:51;94753.38;;;21.04;55.64
6528;BME280;64597;42.664;23.256;2023-05-25T09:48:17;94742.78;;;20.94;55.15
6528;BME280;64597;42.664;23.256;2023-05-25T09:50:43;94741.06;;;20.84;55.27
6528;BME280;64597;42.664;23.256;2023-05-25T09:53:09;94758.16;;;20.88;55.58
6528;BME280;64597;42.664;23.256;2023-05-25T09:55:36;94748.75;;;20.91;56.15
6528;BME280;64597;42.664;23.256;2023-05-25T09:58:01;94747.72;;;21.05;59.64
6528;BME280;64597;42.664;23.256;2023-05-25T10:00:27;94734.47;;;21.82;62.93
6528;BME280;64597;42.664;23.256;2023-05-25T10:02:53;94731.56;;;22.55;59.91
6528;BME280;64597;42.664;23.256;2023-05-25T10:05:18;94732.28;;;23.13;59.48
6528;BME280;64597;42.664;23.256;2023-05-25T10:07:44;94726.47;;;23.50;57.73
6528;BME280;64597;42.664;23.256;2023-05-25T10:10:13;94727.84;;;23.79;56.90
6528;BME280;64597;42.664;23.256;2023-05-25T10:12:41;94725.84;;;24.01;55.95
6528;BME280;64597;42.664;23.256;2023-05-25T10:15:08;94722.25;;;24.23;55.91
6528;BME280;64597;42.664;23.256;2023-05-25T10:17:44;94724.50;;;24.38;53.02
6528;BME280;64597;42.664;23.256;2023-05-25T10:20:12;94712.31;;;24.49;52.35
6528;BME280;64597;42.664;23.256;2023-05-25T10:22:58;94701.34;;;24.54;52.50
6528;BME280;64597;42.664;23.256;2023-05-25T10:25:33;94705.94;;;24.62;51.68
6528;BME280;64597;42.664;23.256;2023-05-25T10:30:38;94700.72;;;24.91;50.60
6528;BME280;64597;42.664;23.256;2023-05-25T10:33:06;94689.25;;;24.94;49.60
6528;BME280;64597;42.664;23.256;2023-05-25T10:35:31;94694.31;;;25.04;48.63
6528;BME280;64597;42.664;23.256;2023-05-25T10:37:58;94665.31;;;24.84;48.06
6528;BME280;64597;42.664;23.256;2023-05-25T10:40:25;94678.75;;;25.10;47.44
6528;BME280;64597;42.664;23.256;2023-05-25T10:42:51;94690.78;;;25.21;47.28
6528;BME280;64597;42.664;23.256;2023-05-25T10:45:17;94679.06;;;25.08;46.94
6528;BME280;64597;42.664;23.256;2023-05-25T10:47:43;94678.97;;;24.71;45.01
6528;BME280;64597;42.664;23.256;2023-05-25T10:50:24;94667.75;;;24.34;46.99
6528;BME280;64597;42.664;23.256;2023-05-25T10:53:13;94678.16;;;24.02;47.74
6528;BME280;64597;42.664;23.256;2023-05-25T10:58:15;94667.00;;;23.69;47.80
6528;BME280;64597;42.664;23.256;2023-05-25T11:00:42;94664.38;;;23.47;48.65
6528;BME280;64597;42.664;23.256;2023-05-25T11:03:08;94656.47;;;23.42;48.13
6528;BME280;64597;42.664;23.256;2023-05-25T11:05:38;94641.91;;;23.12;48.85
6528;BME280;64597;42.664;23.256;2023-05-25T11:08:08;94649.97;;;23.12;50.45
6528;BME280;64597;42.664;23.256;2023-05-25T11:16:30;94652.44;;;23.00;47.49
6528;BME280;64597;42.664;23.256;2023-05-25T11:19:00;94597.78;;;22.52;48.39
6528;BME280;64597;42.664;23.256;2023-05-25T11:24:03;94645.66;;;22.72;49.02
6528;BME280;64597;42.664;23.256;2023-05-25T11:26:34;94659.97;;;22.81;48.91
6528;BME280;64597;42.664;23.256;2023-05-25T11:29:13;94658.53;;;22.83;49.93
6528;BME280;64597;42.664;23.256;2023-05-25T11:31:39;94646.53;;;22.81;49.67
6528;BME280;64597;42.664;23.256;2023-05-25T11:34:04;94652.38;;;22.83;49.21
6528;BME280;64597;42.664;23.256;2023-05-25T11:36:32;94649.69;;;22.83;50.21
6528;BME280;64597;42.664;23.256;2023-05-25T11:39:03;94649.22;;;22.81;50.51
6528;BME280;64597;42.664;23.256;2023-05-25T11:41:29;94646.28;;;22.69;50.27
6528;BME280;64597;42.664;23.256;2023-05-25T11:44:02;94653.25;;;22.70;50.70
6528;BME280;64597;42.664;23.256;2023-05-25T11:46:28;94663.41;;;22.73;50.54
6528;BME280;64597;42.664;23.256;2023-05-25T11:48:55;94657.88;;;22.56;50.34
6528;BME280;64597;42.664;23.256;2023-05-25T11:51:25;94656.41;;;22.50;49.86
6528;BME280;64597;42.664;23.256;2023-05-25T11:53:51;94643.81;;;22.37;49.58
6528;BME280;64597;42.664;23.256;2023-05-25T11:56:17;94657.38;;;22.54;49.53
6528;BME280;64597;42.664;23.256;2023-05-25T11:58:44;94636.88;;;22.36;49.78
6528;BME280;64597;42.664;23.256;2023-05-25T12:01:22;94652.13;;;22.49;49.91
6528;BME280;64597;42.664;23.256;2023-05-25T12:03:52;94645.75;;;22.58;48.66
6528;BME280;64597;42.664;23.256;2023-05-25T12:06:29;94645.44;;;22.60;49.11
6528;BME280;64597;42.664;23.256;2023-05-25T12:08:56;94631.25;;;22.68;48.69
6528;BME280;64597;42.664;23.256;2023-05-25T12:11:32;94631.47;;;22.80;45.46
6528;BME280;64597;42.664;23.256;2023-05-25T12:13:58;94645.56;;;22.85;45.68
6528;BME280;64597;42.664;23.256;2023-05-25T12:16:24;94643.56;;;22.91;47.60
6528;BME280;64597;42.664;23.256;2023-05-25T12:18:51;94635.97;;;22.93;47.27
6528;BME280;64597;42.664;23.256;2023-05-25T12:21:18;94634.59;;;23.04;47.19
6528;BME280;64597;42.664;23.256;2023-05-25T12:23:45;94628.44;;;23.12;46.45
6528;BME280;64597;42.664;23.256;2023-05-25T12:26:12;94610.56;;;23.08;45.82
6528;BME280;64597;42.664;23.256;2023-05-25T12:28:39;94598.38;;;23.10;45.25
6528;BME280;64597;42.664;23.256;2023-05-25T12:31:24;94610.47;;;23.21;45.31
6528;BME280;64597;42.664;23.256;2023-05-25T12:36:50;94607.72;;;23.13;45.09
6528;BME280;64597;42.664;23.256;2023-05-25T12:41:54;94608.53;;;23.13;43.93
6528;BME280;64597;42.664;23.256;2023-05-25T12:46:56;94598.94;;;23.29;43.42
6528;BME280;64597;42.664;23.256;2023-05-25T12:49:22;94594.88;;;23.40;43.43
6528;BME280;64597;42.664;23.256;2023-05-25T12:51:48;94583.34;;;23.48;43.94
6528;BME280;64597;42.664;23.256;2023-05-25T12:54:13;94572.88;;;23.55;44.42
6528;BME280;64597;42.664;23.256;2023-05-25T12:56:55;94569.72;;;23.53;44.67
6528;BME280;64597;42.664;23.256;2023-05-25T12:59:21;94565.28;;;23.57;44.53
6528;BME280;64597;42.664;23.256;2023-05-25T13:01:47;94563.25;;;23.71;43.68
6528;BME280;64597;42.664;23.256;2023-05-25T13:04:12;94566.56;;;23.68;43.47
6528;BME280;64597;42.664;23.256;2023-05-25T13:06:37;94567.84;;;23.80;41.45
6528;BME280;64597;42.664;23.256;2023-05-25T13:09:03;94559.47;;;23.81;41.68
6528;BME280;64597;42.664;23.256;2023-05-25T13:11:29;94556.59;;;23.86;41.42
6528;BME280;64597;42.664;23.256;2023-05-25T13:13:54;94540.91;;;23.97;40.37
6528;BME280;64597;42.664;23.256;2023-05-25T13:16:20;94539.81;;;23.89;39.31
6528;BME280;64597;42.664;23.256;2023-05-25T13:18:46;94537.78;;;24.03;39.09
6528;BME280;64597;42.664;23.256;2023-05-25T13:21:11;94529.69;;;24.03;39.65
6528;BME280;64597;42.664;23.256;2023-05-25T13:23:37;94543.78;;;24.09;38.74
6528;BME280;64597;42.664;23.256;2023-05-25T13:26:02;94530.50;;;24.04;37.55